New York, New York
Traffic Map
Current Weather Conditions
New York, New York
Overcast Haze
Overcast
67°
Feels Like: 67°
Wind Chill: 67° Ceiling: 1000
Heat Index: 67° Visibility: 3mi
Dew Point: 65° Wind: 0mph
Humidity: 93% Direction: ° ()
Pressure: 29.86in Gusts: 0mph
Raw Report DataKNYC 241051Z AUTO 00000KT 3SM BR OVC010 19/18 A2986 RMK AO2 SLP103 T01940183 $
Traffic Incident Summary
Active as of:
Severity:
Category:
InformationThere was an issue retrieving the traffic information for this location. Please try a different location or try again shortly.
Advertisements